Ely, Nevada Weather observations

Data are for observation ending at time listed.
 Day   Time    Ave.   Ave.  Ave.  Vector   Max.   Stn.    Total    Solar   Ave.  
  of    of     Air    Rel.  Wind   Wind    Wind   Baro.  Precip.   Rad.    Soil  
Year   Day     Temp.  Hum.  Speed  Dir.    Gust   Pres.                    Temp. 
2016   (PST)    F      %     mph   deg.    mph     mb.     in.     W/m2     F   
------------------------------------------------------------------------------
 175   18:40   84.9     9    6.6   268     11.2   809.6    0.00      20    87.4
 175   18:50   82.8     9    7.3   267     10.7   809.7    0.00      16    86.9
 175   19:00   80.9    10    5.5   282      8.4   809.7    0.00       9    86.4
 175   19:10   79.0    11    4.7   285      6.6   809.8    0.00       7    85.7
 175   19:20   76.6    11    7.0   285      9.3   809.9    0.00       7    84.9
 175   19:30   73.0    13    6.6   282      8.9   810.0    0.00       1    84.1
 175   19:40   73.4    12    3.7   341      6.1   810.2    0.00       0    83.4
 175   19:50   74.2    11    3.6   301      5.3   810.2    0.00       0    82.8
 175   20:00   74.0    11    3.4   303      5.6   810.3    0.00       0    82.2
 175   20:10   72.6    12    4.5   282      6.1   810.4    0.00       0    81.7
 175   20:20   73.3    11    4.0   281      6.1   810.5    0.00       0    81.2
 175   20:30   72.1    12    4.7   265      5.6   810.6    0.00       0    80.7
 175   20:40   71.3    12    3.2   262      5.3   810.7    0.00       0    80.2
 175   20:50   70.2    13    1.8    90      6.0   810.8    0.00       0    79.8
 175   21:00   67.3    15    3.6    72      6.0   810.8    0.00       0    79.3
 175   21:10   68.1    14    4.1    31      5.3   810.8    0.00       0    78.9
 175   21:20   66.8    16    1.0   288      3.5   810.8    0.00       0    78.6
 175   21:30   64.7    18    0.9   226      3.4   810.9    0.00       0    78.2
 175   21:40   61.0    21    2.2   134      4.2   810.9    0.00       0    77.8
 175   21:50   60.9    22    1.9   160      3.2   811.0    0.00       0    77.4
 175   22:00   59.3    22    2.6   173      4.5   811.0    0.00       0    77.0
 175   22:10   61.3    19    2.3   254      5.1   811.1    0.00       1    76.6
 175   22:20   62.7    17    4.1   267      9.5   811.1    0.00       1    76.2
 175   22:30   62.8    18    1.8   211      3.9   811.3    0.00       0    75.9
 175   22:40   60.9    20    2.7   196      4.4   811.4    0.00       1    75.6
 175   22:50   56.3    26    3.1   108      5.1   811.4    0.00       2    75.2
 175   23:00   57.3    24    2.5    77      4.9   811.5    0.00       1    74.9
 175   23:10   56.6    25    2.5    85      4.0   811.5    0.00       0    74.6
 175   23:20   54.7    27    6.0   145      9.2   811.7    0.00       1    74.3
 175   23:30   52.8    29   12.3   145     17.5   811.9    0.00       1    73.9
 175   23:40   53.8    26   13.2   146     17.8   812.0    0.00       1    73.4
 175   23:50   53.2    27   10.1   159     14.6   812.0    0.00       0    73.0
 176    0:00   52.3    28   11.1   144     13.7   812.0    0.00       1    72.6
 176    0:10   53.5    26    9.9   140     11.9   811.9    0.00       0    72.3
 176    0:20   53.9    26    9.1   146     11.2   811.8    0.00       0    72.0
 176    0:30   52.0    29    7.3   138     10.2   811.8    0.00       0    71.7
 176    0:40   50.6    31    7.6   141      9.9   811.7    0.00       0    71.4
 176    0:50   50.8    30    6.1   131      8.5   811.6    0.00       1    71.1
 176    1:00   49.6    32    6.6   145      8.0   811.6    0.00       1    70.8
 176    1:10   48.3    34    8.6   149     11.8   811.6    0.00       0    70.5
 176    1:20   49.4    32   10.9   152     14.0   811.6    0.00       1    70.1
 176    1:30   50.3    32    7.5   146     11.0   811.6    0.00       0    69.8
 176    1:40   50.6    30    8.2   148     10.7   811.5    0.00       1    69.5
 176    1:50   50.6    29    8.1   148     10.2   811.5    0.00       0    69.3
 176    2:00   50.3    30    9.5   151     11.5   811.5    0.00       1    69.0
 176    2:10   49.6    31   10.5   151     13.4   811.6    0.00       1    68.8
 176    2:20   48.1    33   12.3   152     14.8   811.6    0.00       1    68.5
 176    2:30   47.3    34   12.1   150     14.2   811.5    0.00       1    68.2
 176    2:40   47.0    34   12.6   152     14.9   811.6    0.00       1    67.9
 176    2:50   46.4    35   12.4   154     14.2   811.6    0.00       1    67.6
 176    3:00   46.0    36   12.8   150     15.9   811.6    0.00       1    67.3
 176    3:10   46.4    34   12.3   146     15.6   811.6    0.00       1    67.0
 176    3:20   47.4    32   12.8   144     16.5   811.6    0.00       1    66.8
 176    3:30   48.4    31   11.9   148     15.6   811.6    0.00       1    66.5
 176    3:40   47.9    32   12.0   149     14.5   811.7    0.00       0    66.3
 176    3:50   45.8    36   12.1   150     15.1   811.6    0.00       0    66.1
 176    4:00   45.0    37   12.7   154     15.4   811.7    0.00       1    65.9
 176    4:10   44.7    39   12.7   151     16.9   811.7    0.00       7    65.6
 176    4:20   44.9    37   13.7   150     16.6   811.7    0.00       7    65.3
 176    4:30   45.5    35   13.6   156     17.0   811.7    0.00       7    65.1
 176    4:40   44.6    38   14.1   151     17.6   811.8    0.00      17    64.8
 176    4:50   44.6    40   13.0   152     16.1   811.9    0.00      23    64.6
 176    5:00   45.7    37   12.4   148     17.4   812.0    0.00      71    64.4
 176    5:10   48.2    32   13.0   145     17.2   812.0    0.00     120    64.3
 176    5:20   49.6    30   13.3   143     17.4   812.1    0.00     157    64.4
 176    5:30   51.4    29   14.5   143     18.0   812.0    0.00     193    64.5
 176    5:40   52.8    28   13.3   149     17.2   812.0    0.00     232    64.7
 176    5:50   53.4    29   10.8   152     14.9   812.0    0.00     270    65.0
 176    6:00   54.2    29   11.0   156     13.8   812.1    0.00     308    65.2
 176    6:10   55.7    30    8.3   156     13.3   812.2    0.00     348    65.5
 176    6:20   57.0    30    7.9   163     10.4   812.2    0.00     387    65.8
 176    6:30   59.0    28    7.7   156     11.0   812.2    0.00     424    66.0
 176    6:40   61.6    27    5.8   158      8.6   812.2    0.00     459    66.2
 176    6:50   63.9    25    4.6   156      7.5   812.2    0.00     493    66.5
 176    7:00   66.9    21    3.6   150      5.8   812.3    0.00     524    66.9
 176    7:10   69.9    16    1.4   138      3.0   812.3    0.00     556    67.4
 176    7:20   72.4    14    1.1   357      3.9   812.3    0.00     590    67.8
 176    7:30   72.5    13    2.0   348      4.2   812.3    0.00     622    68.3
 176    7:40   73.2    14    1.9   313      5.0   812.2    0.00     655    68.9
 176    7:50   73.0    14    4.2   312      7.8   812.2    0.00     686    69.6
 176    8:00   73.3    14    5.8   327      8.8   812.2    0.00     720    70.3
 176    8:10   73.7    13    5.9   340      9.0   812.2    0.00     752    71.1
 176    8:20   74.0    12    5.5   342     10.7   812.2    0.00     782    72.0
 176    8:30   74.8    12    6.8   343     11.4   812.1    0.00     811    72.9
 176    8:40   74.7    12    5.8   349     10.0   812.1    0.00     841    73.7
 176    8:50   75.3    12    4.5   320      9.1   812.0    0.00     869    74.5
 176    9:00   75.8    11    5.7   351     10.7   812.0    0.00     900    74.9
 176    9:10   76.0    11    6.3   357     11.2   811.9    0.00     925    75.1
 176    9:20   76.1    11    7.0   322     13.4   812.0    0.00     948    75.4
 176    9:30   76.4    11    5.3     4      9.6   811.9    0.00     972    75.7
 176    9:40   77.1    11    4.3   350     11.6   811.8    0.00     990    76.2
 176    9:50   78.9    11    5.3   250     14.2   811.7    0.00    1009    76.9
 176   10:00   78.3    11    9.0   215     16.2   811.7    0.00    1027    77.9
 176   10:10   78.2    10    5.7   159     14.2   811.6    0.00    1044    78.8
 176   10:20   78.8    11    5.9   248     14.2   811.6    0.00    1059    79.7
 176   10:30   80.2    10    7.3   251     16.5   811.5    0.00    1071    80.6
 176   10:40   80.5    10    7.2   219     14.9   811.4    0.00    1085    81.5
 176   10:50   80.5    10    6.2   219     14.5   811.4    0.00    1094    82.3
 176   11:00   80.6    10    3.5   276      9.1   811.4    0.00    1103    82.9
 176   11:10   80.4    10    2.7   337      6.5   811.3    0.00    1109    83.6
 176   11:20   81.0    10    7.4   296     12.6   811.2    0.00    1115    84.2
 176   11:30   80.5    10    4.6   217      9.6   811.2    0.00    1115    84.8
 176   11:40   82.0    10    7.1   313     13.2   811.0    0.00    1116    85.6
 176   11:50   82.4    10    8.2   287     21.3   810.8    0.00    1119    86.2
 176   12:00   84.0     9    8.6   208     15.6   810.8    0.00    1119    86.7
 176   12:10   84.0    10    8.6   223     12.8   810.7    0.00    1115    87.3
 176   12:20   83.7    10    9.3   216     16.7   810.7    0.00    1107    87.2
 176   12:30   83.5    10    9.8   231     18.6   810.6    0.00    1102    86.8
 176   12:40   84.1    10   11.4   234     16.7   810.6    0.00    1093    87.2
 176   12:50   84.3    10    8.9   239     17.0   810.6    0.00    1084    87.7
 176   13:00   83.6    10    7.9   255     17.5   810.6    0.00    1071    88.4
 176   13:10   84.4    10   12.1   263     21.6   810.6    0.00    1058    88.8
 176   13:20   83.6    10    5.8   220     16.1   810.6    0.00    1045    89.1
 176   13:30   83.9    10    5.0   262     25.9   810.5    0.00    1028    89.4
 176   13:40   84.7    10    9.9   288     16.3   810.4    0.00    1010    89.7
 176   13:50   84.5    10    9.6   267     19.9   810.5    0.00     991    89.8
 176   14:00   84.8    10   13.6   274     23.0   810.5    0.00     970    89.9
 176   14:10   84.2    10   11.1   284     17.3   810.5    0.00     947    89.8
 176   14:20   84.3    10    5.2   311     10.4   810.3    0.00     923    89.8
 176   14:30   84.8    10    9.7   279     16.1   810.2    0.00     899    89.7
 176   14:40   84.4    10    6.0   318     14.6   810.1    0.00     871    89.5
 176   14:50   84.8    10    7.9   273     15.1   810.1    0.00     844    89.5
 176   15:00   85.3    10    6.1   286     13.1   810.0    0.00     816    89.8
 176   15:10   85.2    10    8.2   241     17.5   809.9    0.00     788    90.1
 176   15:20   85.4    10   13.5   245     20.3   809.8    0.00     757    90.4
 176   15:30   85.6    10    9.0   243     17.6   809.7    0.00     726    90.5
 176   15:40   85.0    10    8.8   297     18.6   809.6    0.00     692    90.4
 176   15:50   84.9    10   11.1   285     18.6   809.7    0.00     659    90.2
 176   16:00   84.8    10    9.9   284     16.9   809.6    0.00     624    89.9
 176   16:10   84.4    10    6.7   306     14.4   809.6    0.00     591    89.8
 176   16:20   84.7    10   10.7   282     18.8   809.5    0.00     556    89.8
 176   16:30   84.6    10    9.4   302     15.9   809.4    0.00     521    89.7
 176   16:40   84.5    10    7.8   320     16.1   809.3    0.00     485    89.5
 176   16:50   84.2    10   12.5   294     20.0   809.3    0.00     448    89.3
 176   17:00   83.7    10   12.1   296     19.4   809.4    0.00     147    89.0
 176   17:10   83.6    10    8.5   318     15.3   809.5    0.00      34    88.7
 176   17:20   83.6    10   11.3   301     18.4   809.5    0.00      34    88.5
 176   17:30   83.4    10    9.9   322     17.9   809.6    0.00      34    88.2
 176   17:40   82.9    11   11.7   305     17.9   809.7    0.00      33    87.9
 176   17:50   82.4    11   10.7   322     14.9   809.7    0.00      30    87.5
 176   18:00   81.2    12   16.0   333     22.6   809.8    0.00      27    87.2
 176   18:10   80.0    12   15.6   335     24.2   809.9    0.00      22    86.7
 176   18:20   79.5    12   13.6   331     19.1   810.0    0.00      20    86.2
 176   18:30   78.8    12   11.5   322     16.5   810.2    0.00      20    85.7

Return to Ely, Nevada graphs page.


Western Regional Climate Center,wrcc@dri.edu